sensor_id;sensor_type;location;lat;lon;timestamp;temperature;humidity
67192;HTU21D;54120;53.504;49.426;2022-07-03T00:02:10;14.09;86.81
67192;HTU21D;54120;53.504;49.426;2022-07-03T00:04:36;13.97;87.38
67192;HTU21D;54120;53.504;49.426;2022-07-03T00:07:03;14.08;87.44
67192;HTU21D;54120;53.504;49.426;2022-07-03T00:09:29;14.25;87.22
67192;HTU21D;54120;53.504;49.426;2022-07-03T00:11:55;14.33;86.75
67192;HTU21D;54120;53.504;49.426;2022-07-03T00:14:21;14.34;86.06
67192;HTU21D;54120;53.504;49.426;2022-07-03T00:16:47;14.30;85.69
67192;HTU21D;54120;53.504;49.426;2022-07-03T00:19:14;14.19;86.68
67192;HTU21D;54120;53.504;49.426;2022-07-03T00:21:48;14.23;86.32
67192;HTU21D;54120;53.504;49.426;2022-07-03T00:24:23;14.36;85.16
67192;HTU21D;54120;53.504;49.426;2022-07-03T00:26:52;14.15;86.06
67192;HTU21D;54120;53.504;49.426;2022-07-03T00:29:23;13.85;87.01
67192;HTU21D;54120;53.504;49.426;2022-07-03T00:31:52;13.64;87.73
67192;HTU21D;54120;53.504;49.426;2022-07-03T00:34:18;13.52;88.12
67192;HTU21D;54120;53.504;49.426;2022-07-03T00:36:47;13.49;88.18
67192;HTU21D;54120;53.504;49.426;2022-07-03T00:39:14;13.50;88.47
67192;HTU21D;54120;53.504;49.426;2022-07-03T00:41:40;13.61;87.99
67192;HTU21D;54120;53.504;49.426;2022-07-03T00:44:07;13.66;88.13
67192;HTU21D;54120;53.504;49.426;2022-07-03T00:46:37;13.84;88.17
67192;HTU21D;54120;53.504;49.426;2022-07-03T00:49:06;14.14;86.13
67192;HTU21D;54120;53.504;49.426;2022-07-03T00:51:37;14.83;82.65
67192;HTU21D;54120;53.504;49.426;2022-07-03T00:54:03;15.06;81.08
67192;HTU21D;54120;53.504;49.426;2022-07-03T00:56:31;15.16;81.33
67192;HTU21D;54120;53.504;49.426;2022-07-03T00:58:59;15.83;78.14
67192;HTU21D;54120;53.504;49.426;2022-07-03T01:01:30;16.89;72.79
67192;HTU21D;54120;53.504;49.426;2022-07-03T01:06:52;18.37;66.76
67192;HTU21D;54120;53.504;49.426;2022-07-03T01:09:26;19.09;64.26
67192;HTU21D;54120;53.504;49.426;2022-07-03T01:12:00;19.85;61.12
67192;HTU21D;54120;53.504;49.426;2022-07-03T01:17:32;20.73;57.68
67192;HTU21D;54120;53.504;49.426;2022-07-03T01:20:03;21.20;56.13
67192;HTU21D;54120;53.504;49.426;2022-07-03T01:22:54;21.11;56.42
67192;HTU21D;54120;53.504;49.426;2022-07-03T01:25:46;21.35;56.02
67192;HTU21D;54120;53.504;49.426;2022-07-03T01:28:15;21.47;55.64
67192;HTU21D;54120;53.504;49.426;2022-07-03T01:33:22;21.08;57.10
67192;HTU21D;54120;53.504;49.426;2022-07-03T01:38:29;19.38;63.25
67192;HTU21D;54120;53.504;49.426;2022-07-03T01:40:56;18.88;65.17
67192;HTU21D;54120;53.504;49.426;2022-07-03T01:43:29;18.40;67.59
67192;HTU21D;54120;53.504;49.426;2022-07-03T01:46:01;18.17;68.71
67192;HTU21D;54120;53.504;49.426;2022-07-03T01:48:29;18.20;69.29
67192;HTU21D;54120;53.504;49.426;2022-07-03T01:50:57;18.41;68.57
67192;HTU21D;54120;53.504;49.426;2022-07-03T01:53:27;18.40;68.79
67192;HTU21D;54120;53.504;49.426;2022-07-03T01:55:55;18.46;68.18
67192;HTU21D;54120;53.504;49.426;2022-07-03T01:58:23;18.87;66.44
67192;HTU21D;54120;53.504;49.426;2022-07-03T02:01:02;19.08;66.92
67192;HTU21D;54120;53.504;49.426;2022-07-03T02:03:35;19.37;65.24
67192;HTU21D;54120;53.504;49.426;2022-07-03T02:06:28;20.55;61.59
67192;HTU21D;54120;53.504;49.426;2022-07-03T02:09:03;21.40;58.98
67192;HTU21D;54120;53.504;49.426;2022-07-03T02:11:35;20.46;62.37
67192;HTU21D;54120;53.504;49.426;2022-07-03T02:14:19;20.56;61.53
67192;HTU21D;54120;53.504;49.426;2022-07-03T02:17:16;20.28;63.08
67192;HTU21D;54120;53.504;49.426;2022-07-03T02:20:04;20.21;62.12
67192;HTU21D;54120;53.504;49.426;2022-07-03T02:22:36;21.28;58.83
67192;HTU21D;54120;53.504;49.426;2022-07-03T02:25:08;21.49;57.74
67192;HTU21D;54120;53.504;49.426;2022-07-03T02:27:56;20.88;59.86
67192;HTU21D;54120;53.504;49.426;2022-07-03T02:30:24;21.00;59.60
67192;HTU21D;54120;53.504;49.426;2022-07-03T02:32:52;21.98;57.36
67192;HTU21D;54120;53.504;49.426;2022-07-03T02:35:29;22.27;56.46
67192;HTU21D;54120;53.504;49.426;2022-07-03T02:46:05;24.29;49.61
67192;HTU21D;54120;53.504;49.426;2022-07-03T02:52:49;29.68;36.90
67192;HTU21D;54120;53.504;49.426;2022-07-03T02:54:48;28.29;38.59
67192;HTU21D;54120;53.504;49.426;2022-07-03T02:57:18;25.39;45.77
67192;HTU21D;54120;53.504;49.426;2022-07-03T03:04:58;21.93;56.63
67192;HTU21D;54120;53.504;49.426;2022-07-03T03:07:35;24.10;50.34
67192;HTU21D;54120;53.504;49.426;2022-07-03T03:10:06;24.46;49.35
67192;HTU21D;54120;53.504;49.426;2022-07-03T03:12:37;26.32;44.28
67192;HTU21D;54120;53.504;49.426;2022-07-03T03:15:04;28.44;39.06
67192;HTU21D;54120;53.504;49.426;2022-07-03T03:17:45;26.93;41.89
67192;HTU21D;54120;53.504;49.426;2022-07-03T03:20:16;24.12;49.59
67192;HTU21D;54120;53.504;49.426;2022-07-03T03:25:26;21.17;58.59
67192;HTU21D;54120;53.504;49.426;2022-07-03T03:27:52;20.85;60.48
67192;HTU21D;54120;53.504;49.426;2022-07-03T03:30:19;22.61;55.01
67192;HTU21D;54120;53.504;49.426;2022-07-03T03:32:46;27.21;41.86
67192;HTU21D;54120;53.504;49.426;2022-07-03T03:35:12;28.28;38.57
67192;HTU21D;54120;53.504;49.426;2022-07-03T03:37:39;28.61;37.14
67192;HTU21D;54120;53.504;49.426;2022-07-03T03:40:06;25.96;43.56
67192;HTU21D;54120;53.504;49.426;2022-07-03T03:42:32;24.94;46.82
67192;HTU21D;54120;53.504;49.426;2022-07-03T03:44:58;27.94;39.68
67192;HTU21D;54120;53.504;49.426;2022-07-03T03:47:24;27.31;40.27
67192;HTU21D;54120;53.504;49.426;2022-07-03T03:49:51;24.50;47.62
67192;HTU21D;54120;53.504;49.426;2022-07-03T03:52:17;25.34;45.78
67192;HTU21D;54120;53.504;49.426;2022-07-03T03:54:43;28.44;37.62
67192;HTU21D;54120;53.504;49.426;2022-07-03T03:57:18;24.42;47.49
67192;HTU21D;54120;53.504;49.426;2022-07-03T03:59:45;21.99;54.81
67192;HTU21D;54120;53.504;49.426;2022-07-03T04:02:11;20.74;59.49
67192;HTU21D;54120;53.504;49.426;2022-07-03T04:04:38;20.55;60.93
67192;HTU21D;54120;53.504;49.426;2022-07-03T04:07:04;21.78;58.13
67192;HTU21D;54120;53.504;49.426;2022-07-03T04:09:30;26.11;44.76
67192;HTU21D;54120;53.504;49.426;2022-07-03T04:11:57;29.27;36.56
67192;HTU21D;54120;53.504;49.426;2022-07-03T04:14:24;27.98;39.43
67192;HTU21D;54120;53.504;49.426;2022-07-03T04:16:50;24.20;49.08
67192;HTU21D;54120;53.504;49.426;2022-07-03T04:19:16;22.11;55.95
67192;HTU21D;54120;53.504;49.426;2022-07-03T04:21:42;21.59;57.59
67192;HTU21D;54120;53.504;49.426;2022-07-03T04:24:09;20.84;60.54
67192;HTU21D;54120;53.504;49.426;2022-07-03T04:26:35;20.37;62.63
67192;HTU21D;54120;53.504;49.426;2022-07-03T04:29:01;20.72;61.79
67192;HTU21D;54120;53.504;49.426;2022-07-03T04:31:27;23.10;53.79
67192;HTU21D;54120;53.504;49.426;2022-07-03T04:33:53;22.79;54.70
67192;HTU21D;54120;53.504;49.426;2022-07-03T04:36:19;22.61;53.85
67192;HTU21D;54120;53.504;49.426;2022-07-03T04:38:45;23.97;51.40
67192;HTU21D;54120;53.504;49.426;2022-07-03T04:41:12;23.28;52.83
67192;HTU21D;54120;53.504;49.426;2022-07-03T04:43:38;22.35;56.30
67192;HTU21D;54120;53.504;49.426;2022-07-03T04:46:04;21.99;57.19
67192;HTU21D;54120;53.504;49.426;2022-07-03T04:48:31;21.82;58.64
67192;HTU21D;54120;53.504;49.426;2022-07-03T04:50:58;23.60;53.23
67192;HTU21D;54120;53.504;49.426;2022-07-03T04:53:24;23.88;51.84
67192;HTU21D;54120;53.504;49.426;2022-07-03T04:55:50;24.46;50.20
67192;HTU21D;54120;53.504;49.426;2022-07-03T04:58:17;27.69;40.88
67192;HTU21D;54120;53.504;49.426;2022-07-03T05:00:44;29.46;36.56
67192;HTU21D;54120;53.504;49.426;2022-07-03T05:03:11;31.92;31.78
67192;HTU21D;54120;53.504;49.426;2022-07-03T05:05:37;29.11;37.40
67192;HTU21D;54120;53.504;49.426;2022-07-03T05:08:04;26.57;43.32
67192;HTU21D;54120;53.504;49.426;2022-07-03T05:10:31;29.05;38.17
67192;HTU21D;54120;53.504;49.426;2022-07-03T05:12:57;32.07;31.54
67192;HTU21D;54120;53.504;49.426;2022-07-03T05:15:23;33.51;29.50
67192;HTU21D;54120;53.504;49.426;2022-07-03T05:17:49;34.50;26.94
67192;HTU21D;54120;53.504;49.426;2022-07-03T05:20:16;33.59;28.64
67192;HTU21D;54120;53.504;49.426;2022-07-03T05:22:52;33.96;28.59
67192;HTU21D;54120;53.504;49.426;2022-07-03T05:25:18;34.04;27.41
67192;HTU21D;54120;53.504;49.426;2022-07-03T05:27:45;31.99;31.61
67192;HTU21D;54120;53.504;49.426;2022-07-03T05:30:11;32.69;29.95
67192;HTU21D;54120;53.504;49.426;2022-07-03T05:32:38;33.06;29.57
67192;HTU21D;54120;53.504;49.426;2022-07-03T05:35:05;32.71;29.80
67192;HTU21D;54120;53.504;49.426;2022-07-03T05:37:31;31.55;32.56
67192;HTU21D;54120;53.504;49.426;2022-07-03T05:39:58;32.41;30.93
67192;HTU21D;54120;53.504;49.426;2022-07-03T05:42:24;33.45;28.23
67192;HTU21D;54120;53.504;49.426;2022-07-03T05:44:50;34.23;27.08
67192;HTU21D;54120;53.504;49.426;2022-07-03T05:47:16;33.86;28.61
67192;HTU21D;54120;53.504;49.426;2022-07-03T05:49:42;32.78;29.58
67192;HTU21D;54120;53.504;49.426;2022-07-03T05:52:09;32.58;29.40
67192;HTU21D;54120;53.504;49.426;2022-07-03T05:54:35;30.57;33.18
67192;HTU21D;54120;53.504;49.426;2022-07-03T05:57:01;31.10;32.77
67192;HTU21D;54120;53.504;49.426;2022-07-03T05:59:27;31.08;32.58
67192;HTU21D;54120;53.504;49.426;2022-07-03T06:01:53;31.73;31.37
67192;HTU21D;54120;53.504;49.426;2022-07-03T06:04:19;31.22;32.84
67192;HTU21D;54120;53.504;49.426;2022-07-03T06:06:45;32.11;31.18
67192;HTU21D;54120;53.504;49.426;2022-07-03T06:09:11;31.74;31.82
67192;HTU21D;54120;53.504;49.426;2022-07-03T06:11:38;32.07;30.60
67192;HTU21D;54120;53.504;49.426;2022-07-03T06:14:04;32.86;30.18
67192;HTU21D;54120;53.504;49.426;2022-07-03T06:16:30;32.23;31.69
67192;HTU21D;54120;53.504;49.426;2022-07-03T06:18:56;32.96;29.96
67192;HTU21D;54120;53.504;49.426;2022-07-03T06:21:22;33.29;29.47
67192;HTU21D;54120;53.504;49.426;2022-07-03T06:23:48;31.23;34.08
67192;HTU21D;54120;53.504;49.426;2022-07-03T06:26:15;31.22;34.00
67192;HTU21D;54120;53.504;49.426;2022-07-03T06:28:41;31.72;33.25
67192;HTU21D;54120;53.504;49.426;2022-07-03T06:31:08;31.75;32.64
67192;HTU21D;54120;53.504;49.426;2022-07-03T06:33:34;32.82;30.78
67192;HTU21D;54120;53.504;49.426;2022-07-03T06:36:00;33.58;28.69
67192;HTU21D;54120;53.504;49.426;2022-07-03T06:38:26;32.42;30.35
67192;HTU21D;54120;53.504;49.426;2022-07-03T06:40:52;31.98;31.51
67192;HTU21D;54120;53.504;49.426;2022-07-03T06:43:19;31.15;32.54
67192;HTU21D;54120;53.504;49.426;2022-07-03T06:45:45;31.41;31.50
67192;HTU21D;54120;53.504;49.426;2022-07-03T06:48:11;29.86;35.49
67192;HTU21D;54120;53.504;49.426;2022-07-03T06:50:37;29.89;33.45
67192;HTU21D;54120;53.504;49.426;2022-07-03T06:53:03;29.95;34.29
67192;HTU21D;54120;53.504;49.426;2022-07-03T06:55:29;31.29;31.79
67192;HTU21D;54120;53.504;49.426;2022-07-03T06:57:56;31.80;30.12
67192;HTU21D;54120;53.504;49.426;2022-07-03T07:00:22;30.44;32.45
67192;HTU21D;54120;53.504;49.426;2022-07-03T07:02:48;27.98;37.91
67192;HTU21D;54120;53.504;49.426;2022-07-03T07:05:14;28.92;35.47
67192;HTU21D;54120;53.504;49.426;2022-07-03T07:07:40;26.38;41.92
67192;HTU21D;54120;53.504;49.426;2022-07-03T07:10:07;25.65;43.48
67192;HTU21D;54120;53.504;49.426;2022-07-03T07:12:33;25.07;45.93
67192;HTU21D;54120;53.504;49.426;2022-07-03T07:14:59;26.31;43.25
67192;HTU21D;54120;53.504;49.426;2022-07-03T07:17:25;25.96;42.76
67192;HTU21D;54120;53.504;49.426;2022-07-03T07:19:52;25.95;42.34
67192;HTU21D;54120;53.504;49.426;2022-07-03T07:22:20;29.01;35.73
67192;HTU21D;54120;53.504;49.426;2022-07-03T07:24:46;31.10;30.90
67192;HTU21D;54120;53.504;49.426;2022-07-03T07:27:12;30.70;31.38
67192;HTU21D;54120;53.504;49.426;2022-07-03T07:29:38;28.87;35.43
67192;HTU21D;54120;53.504;49.426;2022-07-03T07:32:04;27.79;37.83
67192;HTU21D;54120;53.504;49.426;2022-07-03T07:34:31;25.63;42.48
67192;HTU21D;54120;53.504;49.426;2022-07-03T07:36:57;25.10;43.91
67192;HTU21D;54120;53.504;49.426;2022-07-03T07:39:23;25.75;41.29
67192;HTU21D;54120;53.504;49.426;2022-07-03T07:41:49;26.19;39.43
67192;HTU21D;54120;53.504;49.426;2022-07-03T07:44:15;25.81;40.71
67192;HTU21D;54120;53.504;49.426;2022-07-03T07:46:41;25.79;40.42
67192;HTU21D;54120;53.504;49.426;2022-07-03T07:49:08;27.54;37.53
67192;HTU21D;54120;53.504;49.426;2022-07-03T07:51:34;28.40;35.50
67192;HTU21D;54120;53.504;49.426;2022-07-03T07:54:00;29.04;33.82
67192;HTU21D;54120;53.504;49.426;2022-07-03T07:56:27;28.97;33.87
67192;HTU21D;54120;53.504;49.426;2022-07-03T07:58:53;27.24;38.39
67192;HTU21D;54120;53.504;49.426;2022-07-03T08:01:19;26.58;39.95
67192;HTU21D;54120;53.504;49.426;2022-07-03T08:04:04;25.89;40.04
67192;HTU21D;54120;53.504;49.426;2022-07-03T08:06:48;25.54;41.95
67192;HTU21D;54120;53.504;49.426;2022-07-03T08:09:15;25.75;41.59
67192;HTU21D;54120;53.504;49.426;2022-07-03T08:11:42;25.57;41.66
67192;HTU21D;54120;53.504;49.426;2022-07-03T08:14:08;25.45;42.29
67192;HTU21D;54120;53.504;49.426;2022-07-03T08:16:36;25.80;42.54
67192;HTU21D;54120;53.504;49.426;2022-07-03T08:19:05;25.51;42.42
67192;HTU21D;54120;53.504;49.426;2022-07-03T08:21:31;25.02;42.42
67192;HTU21D;54120;53.504;49.426;2022-07-03T08:23:58;25.00;43.11
67192;HTU21D;54120;53.504;49.426;2022-07-03T08:26:24;25.16;42.75
67192;HTU21D;54120;53.504;49.426;2022-07-03T08:28:51;25.13;41.62
67192;HTU21D;54120;53.504;49.426;2022-07-03T08:31:17;25.38;41.72
67192;HTU21D;54120;53.504;49.426;2022-07-03T08:33:43;25.64;41.24
67192;HTU21D;54120;53.504;49.426;2022-07-03T08:36:09;25.81;40.84
67192;HTU21D;54120;53.504;49.426;2022-07-03T08:38:35;26.13;41.20
67192;HTU21D;54120;53.504;49.426;2022-07-03T08:41:03;26.40;39.20
67192;HTU21D;54120;53.504;49.426;2022-07-03T08:43:29;25.88;39.01
67192;HTU21D;54120;53.504;49.426;2022-07-03T08:45:58;25.66;39.36
67192;HTU21D;54120;53.504;49.426;2022-07-03T08:48:25;25.54;38.78
67192;HTU21D;54120;53.504;49.426;2022-07-03T08:50:51;25.51;39.65
67192;HTU21D;54120;53.504;49.426;2022-07-03T08:53:19;25.44;40.60
67192;HTU21D;54120;53.504;49.426;2022-07-03T08:55:47;25.46;40.98
67192;HTU21D;54120;53.504;49.426;2022-07-03T08:58:14;25.72;40.55
67192;HTU21D;54120;53.504;49.426;2022-07-03T09:00:45;25.39;41.05
67192;HTU21D;54120;53.504;49.426;2022-07-03T09:03:12;25.71;40.70
67192;HTU21D;54120;53.504;49.426;2022-07-03T09:05:40;25.88;41.46
67192;HTU21D;54120;53.504;49.426;2022-07-03T09:08:08;26.52;39.59
67192;HTU21D;54120;53.504;49.426;2022-07-03T09:10:35;26.43;38.62
67192;HTU21D;54120;53.504;49.426;2022-07-03T09:13:02;26.55;37.70
67192;HTU21D;54120;53.504;49.426;2022-07-03T09:15:28;26.46;37.56
67192;HTU21D;54120;53.504;49.426;2022-07-03T09:18:06;26.16;38.02
67192;HTU21D;54120;53.504;49.426;2022-07-03T09:20:36;25.90;39.29
67192;HTU21D;54120;53.504;49.426;2022-07-03T09:23:19;26.15;38.71
67192;HTU21D;54120;53.504;49.426;2022-07-03T09:26:00;26.09;39.49
67192;HTU21D;54120;53.504;49.426;2022-07-03T09:28:51;26.27;38.98
67192;HTU21D;54120;53.504;49.426;2022-07-03T09:31:20;26.50;38.82
67192;HTU21D;54120;53.504;49.426;2022-07-03T09:34:06;26.97;38.49
67192;HTU21D;54120;53.504;49.426;2022-07-03T09:36:48;26.51;39.49
67192;HTU21D;54120;53.504;49.426;2022-07-03T09:39:26;26.13;40.90
67192;HTU21D;54120;53.504;49.426;2022-07-03T09:42:06;26.25;40.48
67192;HTU21D;54120;53.504;49.426;2022-07-03T09:47:19;25.49;40.49
67192;HTU21D;54120;53.504;49.426;2022-07-03T09:49:59;25.20;41.23
67192;HTU21D;54120;53.504;49.426;2022-07-03T09:52:40;25.24;41.44
67192;HTU21D;54120;53.504;49.426;2022-07-03T09:57:45;25.38;41.21
67192;HTU21D;54120;53.504;49.426;2022-07-03T10:00:18;25.42;40.16
67192;HTU21D;54120;53.504;49.426;2022-07-03T10:05:42;25.33;39.64
67192;HTU21D;54120;53.504;49.426;2022-07-03T10:10:39;25.22;40.26
67192;HTU21D;54120;53.504;49.426;2022-07-03T10:13:05;25.14;40.97
67192;HTU21D;54120;53.504;49.426;2022-07-03T10:15:35;24.97;41.60
67192;HTU21D;54120;53.504;49.426;2022-07-03T10:18:11;25.00;41.39
67192;HTU21D;54120;53.504;49.426;2022-07-03T10:20:45;24.91;41.77
67192;HTU21D;54120;53.504;49.426;2022-07-03T10:23:12;25.28;40.05
67192;HTU21D;54120;53.504;49.426;2022-07-03T10:25:41;25.06;40.26
67192;HTU21D;54120;53.504;49.426;2022-07-03T10:28:09;25.24;39.90
67192;HTU21D;54120;53.504;49.426;2022-07-03T10:30:37;25.33;40.05
67192;HTU21D;54120;53.504;49.426;2022-07-03T10:33:03;25.51;40.06
67192;HTU21D;54120;53.504;49.426;2022-07-03T10:35:37;25.64;40.53
67192;HTU21D;54120;53.504;49.426;2022-07-03T10:43:52;25.14;41.60
67192;HTU21D;54120;53.504;49.426;2022-07-03T10:46:37;25.10;41.92
67192;HTU21D;54120;53.504;49.426;2022-07-03T10:49:10;25.23;39.73
67192;HTU21D;54120;53.504;49.426;2022-07-03T11:02:26;25.94;37.21
67192;HTU21D;54120;53.504;49.426;2022-07-03T11:07:29;25.99;36.07
67192;HTU21D;54120;53.504;49.426;2022-07-03T11:25:46;25.80;37.05
67192;HTU21D;54120;53.504;49.426;2022-07-03T11:36:30;26.10;34.72
67192;HTU21D;54120;53.504;49.426;2022-07-03T11:41:41;26.06;35.32
67192;HTU21D;54120;53.504;49.426;2022-07-03T11:44:10;25.99;36.36
67192;HTU21D;54120;53.504;49.426;2022-07-03T11:46:40;26.49;35.92
67192;HTU21D;54120;53.504;49.426;2022-07-03T11:51:33;27.35;34.40
67192;HTU21D;54120;53.504;49.426;2022-07-03T11:54:00;27.11;34.94
67192;HTU21D;54120;53.504;49.426;2022-07-03T11:56:27;27.13;34.95
67192;HTU21D;54120;53.504;49.426;2022-07-03T11:58:55;26.68;36.29
67192;HTU21D;54120;53.504;49.426;2022-07-03T12:03:49;26.03;36.66
67192;HTU21D;54120;53.504;49.426;2022-07-03T12:06:16;25.87;36.66
67192;HTU21D;54120;53.504;49.426;2022-07-03T12:08:42;25.79;37.05
67192;HTU21D;54120;53.504;49.426;2022-07-03T12:11:16;25.88;37.30
67192;HTU21D;54120;53.504;49.426;2022-07-03T12:13:43;26.06;36.73
67192;HTU21D;54120;53.504;49.426;2022-07-03T12:16:14;25.98;36.72
67192;HTU21D;54120;53.504;49.426;2022-07-03T12:19:06;25.69;38.16
67192;HTU21D;54120;53.504;49.426;2022-07-03T12:21:39;25.95;37.47
67192;HTU21D;54120;53.504;49.426;2022-07-03T12:24:12;26.21;35.41
67192;HTU21D;54120;53.504;49.426;2022-07-03T12:26:39;26.33;35.20
67192;HTU21D;54120;53.504;49.426;2022-07-03T12:29:08;26.79;34.85
67192;HTU21D;54120;53.504;49.426;2022-07-03T12:31:35;27.23;32.06
67192;HTU21D;54120;53.504;49.426;2022-07-03T12:34:04;27.20;32.60
67192;HTU21D;54120;53.504;49.426;2022-07-03T12:36:30;27.55;33.84
67192;HTU21D;54120;53.504;49.426;2022-07-03T12:38:58;27.22;32.39
67192;HTU21D;54120;53.504;49.426;2022-07-03T12:41:25;26.76;33.76
67192;HTU21D;54120;53.504;49.426;2022-07-03T12:43:52;26.48;33.65
67192;HTU21D;54120;53.504;49.426;2022-07-03T12:46:23;26.28;34.57
67192;HTU21D;54120;53.504;49.426;2022-07-03T12:48:51;26.58;33.79
67192;HTU21D;54120;53.504;49.426;2022-07-03T12:54:30;27.42;33.52
67192;HTU21D;54120;53.504;49.426;2022-07-03T12:57:07;27.00;30.09
67192;HTU21D;54120;53.504;49.426;2022-07-03T13:00:06;26.63;31.90
67192;HTU21D;54120;53.504;49.426;2022-07-03T13:02:33;26.33;32.55
67192;HTU21D;54120;53.504;49.426;2022-07-03T13:05:01;26.33;32.88
67192;HTU21D;54120;53.504;49.426;2022-07-03T13:07:31;26.53;33.50
67192;HTU21D;54120;53.504;49.426;2022-07-03T13:10:00;26.71;33.99
67192;HTU21D;54120;53.504;49.426;2022-07-03T13:12:29;27.13;33.43
67192;HTU21D;54120;53.504;49.426;2022-07-03T13:15:03;27.23;33.70
67192;HTU21D;54120;53.504;49.426;2022-07-03T13:20:17;26.38;35.33
67192;HTU21D;54120;53.504;49.426;2022-07-03T13:22:47;26.30;35.88
67192;HTU21D;54120;53.504;49.426;2022-07-03T13:25:14;26.41;35.08
67192;HTU21D;54120;53.504;49.426;2022-07-03T13:27:40;26.39;35.04
67192;HTU21D;54120;53.504;49.426;2022-07-03T13:30:09;26.39;36.27
67192;HTU21D;54120;53.504;49.426;2022-07-03T13:32:35;26.27;34.50
67192;HTU21D;54120;53.504;49.426;2022-07-03T13:35:01;26.24;35.89
67192;HTU21D;54120;53.504;49.426;2022-07-03T13:37:29;26.12;34.88
67192;HTU21D;54120;53.504;49.426;2022-07-03T13:39:55;26.40;34.77
67192;HTU21D;54120;53.504;49.426;2022-07-03T13:42:24;26.79;34.09
67192;HTU21D;54120;53.504;49.426;2022-07-03T13:44:50;26.56;33.86
67192;HTU21D;54120;53.504;49.426;2022-07-03T13:47:16;26.25;35.02
67192;HTU21D;54120;53.504;49.426;2022-07-03T13:49:42;26.25;35.69
67192;HTU21D;54120;53.504;49.426;2022-07-03T13:52:09;26.27;35.36
67192;HTU21D;54120;53.504;49.426;2022-07-03T13:54:35;26.21;35.79
67192;HTU21D;54120;53.504;49.426;2022-07-03T13:57:02;26.10;35.92
67192;HTU21D;54120;53.504;49.426;2022-07-03T13:59:29;25.94;34.57
67192;HTU21D;54120;53.504;49.426;2022-07-03T14:01:59;25.80;35.70
67192;HTU21D;54120;53.504;49.426;2022-07-03T14:04:26;25.80;35.60
67192;HTU21D;54120;53.504;49.426;2022-07-03T14:06:53;25.58;37.17
67192;HTU21D;54120;53.504;49.426;2022-07-03T14:09:19;25.34;36.88
67192;HTU21D;54120;53.504;49.426;2022-07-03T14:11:45;25.28;36.67
67192;HTU21D;54120;53.504;49.426;2022-07-03T14:14:13;25.22;36.97
67192;HTU21D;54120;53.504;49.426;2022-07-03T14:16:39;25.05;37.97
67192;HTU21D;54120;53.504;49.426;2022-07-03T14:19:05;25.09;37.49
67192;HTU21D;54120;53.504;49.426;2022-07-03T14:21:33;25.52;37.06
67192;HTU21D;54120;53.504;49.426;2022-07-03T14:24:00;25.60;37.13
67192;HTU21D;54120;53.504;49.426;2022-07-03T14:26:32;25.68;37.00
67192;HTU21D;54120;53.504;49.426;2022-07-03T14:29:16;26.11;36.30
67192;HTU21D;54120;53.504;49.426;2022-07-03T14:32:01;26.16;36.05
67192;HTU21D;54120;53.504;49.426;2022-07-03T14:34:46;26.02;35.82
67192;HTU21D;54120;53.504;49.426;2022-07-03T14:37:13;26.08;36.34
67192;HTU21D;54120;53.504;49.426;2022-07-03T14:39:41;26.03;35.86
67192;HTU21D;54120;53.504;49.426;2022-07-03T14:42:08;25.95;35.75
67192;HTU21D;54120;53.504;49.426;2022-07-03T14:44:34;25.87;35.96
67192;HTU21D;54120;53.504;49.426;2022-07-03T14:47:00;25.65;36.17
67192;HTU21D;54120;53.504;49.426;2022-07-03T14:49:26;25.71;36.95
67192;HTU21D;54120;53.504;49.426;2022-07-03T14:51:52;25.75;37.26
67192;HTU21D;54120;53.504;49.426;2022-07-03T14:54:19;25.76;36.99
67192;HTU21D;54120;53.504;49.426;2022-07-03T14:56:57;25.67;37.33
67192;HTU21D;54120;53.504;49.426;2022-07-03T14:59:37;25.57;37.59
67192;HTU21D;54120;53.504;49.426;2022-07-03T15:02:06;25.39;37.96
67192;HTU21D;54120;53.504;49.426;2022-07-03T15:07:13;25.45;37.31
67192;HTU21D;54120;53.504;49.426;2022-07-03T15:09:44;25.34;37.29
67192;HTU21D;54120;53.504;49.426;2022-07-03T15:12:12;25.37;37.34
67192;HTU21D;54120;53.504;49.426;2022-07-03T15:14:54;25.36;37.38
67192;HTU21D;54120;53.504;49.426;2022-07-03T15:17:21;25.31;37.54
67192;HTU21D;54120;53.504;49.426;2022-07-03T15:19:48;25.12;36.65
67192;HTU21D;54120;53.504;49.426;2022-07-03T15:22:16;25.03;37.81
67192;HTU21D;54120;53.504;49.426;2022-07-03T15:24:42;24.98;37.66
67192;HTU21D;54120;53.504;49.426;2022-07-03T15:27:09;24.98;38.30
67192;HTU21D;54120;53.504;49.426;2022-07-03T15:29:36;24.93;38.45
67192;HTU21D;54120;53.504;49.426;2022-07-03T15:32:04;24.83;38.75
67192;HTU21D;54120;53.504;49.426;2022-07-03T15:34:30;24.73;39.06
67192;HTU21D;54120;53.504;49.426;2022-07-03T15:37:11;24.69;39.09
67192;HTU21D;54120;53.504;49.426;2022-07-03T15:40:05;24.60;38.88
67192;HTU21D;54120;53.504;49.426;2022-07-03T15:46:03;24.28;39.97
67192;HTU21D;54120;53.504;49.426;2022-07-03T15:51:46;24.01;41.04
67192;HTU21D;54120;53.504;49.426;2022-07-03T15:56:56;23.85;41.91
67192;HTU21D;54120;53.504;49.426;2022-07-03T15:59:27;23.84;42.36
67192;HTU21D;54120;53.504;49.426;2022-07-03T16:02:00;23.72;42.77
67192;HTU21D;54120;53.504;49.426;2022-07-03T16:07:16;23.51;43.22
67192;HTU21D;54120;53.504;49.426;2022-07-03T16:09:43;23.49;43.18
67192;HTU21D;54120;53.504;49.426;2022-07-03T16:12:10;23.46;43.42
67192;HTU21D;54120;53.504;49.426;2022-07-03T16:14:47;23.42;43.56
67192;HTU21D;54120;53.504;49.426;2022-07-03T16:17:16;23.31;43.98
67192;HTU21D;54120;53.504;49.426;2022-07-03T16:19:48;23.22;44.47
67192;HTU21D;54120;53.504;49.426;2022-07-03T16:22:15;23.17;44.88
67192;HTU21D;54120;53.504;49.426;2022-07-03T16:24:42;23.13;44.86
67192;HTU21D;54120;53.504;49.426;2022-07-03T16:27:15;23.05;45.57
67192;HTU21D;54120;53.504;49.426;2022-07-03T16:29:42;22.98;45.90
67192;HTU21D;54120;53.504;49.426;2022-07-03T16:32:12;22.88;46.55
67192;HTU21D;54120;53.504;49.426;2022-07-03T16:34:56;22.80;47.08
67192;HTU21D;54120;53.504;49.426;2022-07-03T16:37:26;22.71;47.39
67192;HTU21D;54120;53.504;49.426;2022-07-03T16:39:59;22.64;47.90
67192;HTU21D;54120;53.504;49.426;2022-07-03T16:42:29;22.54;48.41
67192;HTU21D;54120;53.504;49.426;2022-07-03T16:45:03;22.43;48.75
67192;HTU21D;54120;53.504;49.426;2022-07-03T16:47:30;22.34;49.38
67192;HTU21D;54120;53.504;49.426;2022-07-03T16:49:57;22.26;49.75
67192;HTU21D;54120;53.504;49.426;2022-07-03T16:52:25;22.19;50.44
67192;HTU21D;54120;53.504;49.426;2022-07-03T16:54:52;22.12;50.56
67192;HTU21D;54120;53.504;49.426;2022-07-03T16:57:18;22.04;52.06
67192;HTU21D;54120;53.504;49.426;2022-07-03T16:59:45;21.92;51.47
67192;HTU21D;54120;53.504;49.426;2022-07-03T17:02:17;21.82;52.20
67192;HTU21D;54120;53.504;49.426;2022-07-03T17:04:44;21.72;52.64
67192;HTU21D;54120;53.504;49.426;2022-07-03T17:07:11;21.69;52.90
67192;HTU21D;54120;53.504;49.426;2022-07-03T17:09:39;21.58;53.49